sensor_id;sensor_type;location;lat;lon;timestamp;temperature;humidity
3690;DHT22;1861;50.240;8.596;2023-04-06T00:00:00;7.50;70.20
3690;DHT22;1861;50.240;8.596;2023-04-06T00:02:35;7.60;69.90
3690;DHT22;1861;50.240;8.596;2023-04-06T00:05:05;7.30;69.60
3690;DHT22;1861;50.240;8.596;2023-04-06T00:07:34;7.20;69.80
3690;DHT22;1861;50.240;8.596;2023-04-06T00:10:03;7.20;70.50
3690;DHT22;1861;50.240;8.596;2023-04-06T00:12:31;7.30;70.30
3690;DHT22;1861;50.240;8.596;2023-04-06T00:14:59;7.40;70.70
3690;DHT22;1861;50.240;8.596;2023-04-06T00:17:28;7.30;70.60
3690;DHT22;1861;50.240;8.596;2023-04-06T00:19:56;7.20;70.70
3690;DHT22;1861;50.240;8.596;2023-04-06T00:22:26;7.30;70.60
3690;DHT22;1861;50.240;8.596;2023-04-06T00:24:54;7.40;70.20
3690;DHT22;1861;50.240;8.596;2023-04-06T00:27:22;7.40;70.20
3690;DHT22;1861;50.240;8.596;2023-04-06T00:29:51;7.20;71.20
3690;DHT22;1861;50.240;8.596;2023-04-06T00:32:19;7.10;70.60
3690;DHT22;1861;50.240;8.596;2023-04-06T00:34:47;7.00;70.80
3690;DHT22;1861;50.240;8.596;2023-04-06T00:37:16;7.10;70.30
3690;DHT22;1861;50.240;8.596;2023-04-06T00:39:45;7.20;70.30
3690;DHT22;1861;50.240;8.596;2023-04-06T00:42:14;7.20;70.10
3690;DHT22;1861;50.240;8.596;2023-04-06T00:44:42;7.10;70.50
3690;DHT22;1861;50.240;8.596;2023-04-06T00:47:10;7.20;69.70
3690;DHT22;1861;50.240;8.596;2023-04-06T00:49:39;7.20;69.50
3690;DHT22;1861;50.240;8.596;2023-04-06T00:52:08;7.10;69.50
3690;DHT22;1861;50.240;8.596;2023-04-06T00:54:36;7.10;69.50
3690;DHT22;1861;50.240;8.596;2023-04-06T00:57:06;7.20;70.00
3690;DHT22;1861;50.240;8.596;2023-04-06T00:59:35;7.10;70.10
3690;DHT22;1861;50.240;8.596;2023-04-06T01:02:04;7.10;70.10
3690;DHT22;1861;50.240;8.596;2023-04-06T01:04:39;6.90;71.10
3690;DHT22;1861;50.240;8.596;2023-04-06T01:07:13;6.90;70.90
3690;DHT22;1861;50.240;8.596;2023-04-06T01:09:50;6.80;71.40
3690;DHT22;1861;50.240;8.596;2023-04-06T01:12:24;6.90;71.50
3690;DHT22;1861;50.240;8.596;2023-04-06T01:14:53;6.90;71.50
3690;DHT22;1861;50.240;8.596;2023-04-06T01:17:22;6.80;71.40
3690;DHT22;1861;50.240;8.596;2023-04-06T01:19:50;6.80;71.10
3690;DHT22;1861;50.240;8.596;2023-04-06T01:22:27;6.70;72.10
3690;DHT22;1861;50.240;8.596;2023-04-06T01:24:59;6.70;72.40
3690;DHT22;1861;50.240;8.596;2023-04-06T01:27:40;6.70;72.50
3690;DHT22;1861;50.240;8.596;2023-04-06T01:30:12;6.70;72.30
3690;DHT22;1861;50.240;8.596;2023-04-06T01:32:48;6.70;72.40
3690;DHT22;1861;50.240;8.596;2023-04-06T01:35:27;6.80;71.80
3690;DHT22;1861;50.240;8.596;2023-04-06T01:38:07;6.90;71.70
3690;DHT22;1861;50.240;8.596;2023-04-06T01:40:37;6.80;72.40
3690;DHT22;1861;50.240;8.596;2023-04-06T01:43:05;6.70;72.30
3690;DHT22;1861;50.240;8.596;2023-04-06T01:45:49;6.60;72.40
3690;DHT22;1861;50.240;8.596;2023-04-06T01:48:20;6.60;72.30
3690;DHT22;1861;50.240;8.596;2023-04-06T01:50:49;6.60;73.00
3690;DHT22;1861;50.240;8.596;2023-04-06T01:53:25;6.50;72.90
3690;DHT22;1861;50.240;8.596;2023-04-06T01:55:59;6.80;72.50
3690;DHT22;1861;50.240;8.596;2023-04-06T01:58:33;6.90;72.40
3690;DHT22;1861;50.240;8.596;2023-04-06T02:01:02;6.80;72.60
3690;DHT22;1861;50.240;8.596;2023-04-06T02:03:42;6.80;72.30
3690;DHT22;1861;50.240;8.596;2023-04-06T02:06:11;6.90;71.80
3690;DHT22;1861;50.240;8.596;2023-04-06T02:08:42;6.90;71.70
3690;DHT22;1861;50.240;8.596;2023-04-06T02:11:10;6.90;71.70
3690;DHT22;1861;50.240;8.596;2023-04-06T02:13:43;7.00;72.10
3690;DHT22;1861;50.240;8.596;2023-04-06T02:16:12;6.90;71.70
3690;DHT22;1861;50.240;8.596;2023-04-06T02:18:41;6.90;71.60
3690;DHT22;1861;50.240;8.596;2023-04-06T02:21:09;6.80;72.00
3690;DHT22;1861;50.240;8.596;2023-04-06T02:23:37;6.70;72.20
3690;DHT22;1861;50.240;8.596;2023-04-06T02:26:07;6.80;72.00
3690;DHT22;1861;50.240;8.596;2023-04-06T02:28:35;6.60;72.00
3690;DHT22;1861;50.240;8.596;2023-04-06T02:31:03;6.50;72.30
3690;DHT22;1861;50.240;8.596;2023-04-06T02:33:31;6.50;72.90
3690;DHT22;1861;50.240;8.596;2023-04-06T02:35:59;6.60;72.40
3690;DHT22;1861;50.240;8.596;2023-04-06T02:38:28;6.70;71.90
3690;DHT22;1861;50.240;8.596;2023-04-06T02:41:00;6.80;71.90
3690;DHT22;1861;50.240;8.596;2023-04-06T02:43:30;6.80;72.10
3690;DHT22;1861;50.240;8.596;2023-04-06T02:46:04;6.90;71.60
3690;DHT22;1861;50.240;8.596;2023-04-06T02:48:37;6.70;72.00
3690;DHT22;1861;50.240;8.596;2023-04-06T02:51:05;6.60;72.40
3690;DHT22;1861;50.240;8.596;2023-04-06T02:53:34;6.40;72.50
3690;DHT22;1861;50.240;8.596;2023-04-06T02:56:02;6.40;72.60
3690;DHT22;1861;50.240;8.596;2023-04-06T02:58:43;6.30;72.50
3690;DHT22;1861;50.240;8.596;2023-04-06T03:01:12;6.40;72.60
3690;DHT22;1861;50.240;8.596;2023-04-06T03:03:42;6.50;72.10
3690;DHT22;1861;50.240;8.596;2023-04-06T03:06:18;6.60;71.50
3690;DHT22;1861;50.240;8.596;2023-04-06T03:08:48;6.70;71.50
3690;DHT22;1861;50.240;8.596;2023-04-06T03:11:16;6.70;71.30
3690;DHT22;1861;50.240;8.596;2023-04-06T03:13:46;6.70;71.20
3690;DHT22;1861;50.240;8.596;2023-04-06T03:16:14;6.60;70.90
3690;DHT22;1861;50.240;8.596;2023-04-06T03:18:43;6.60;70.80
3690;DHT22;1861;50.240;8.596;2023-04-06T03:21:13;6.70;70.20
3690;DHT22;1861;50.240;8.596;2023-04-06T03:23:47;6.50;70.60
3690;DHT22;1861;50.240;8.596;2023-04-06T03:26:17;6.50;71.00
3690;DHT22;1861;50.240;8.596;2023-04-06T03:28:47;6.40;70.90
3690;DHT22;1861;50.240;8.596;2023-04-06T03:31:16;6.30;71.20
3690;DHT22;1861;50.240;8.596;2023-04-06T03:33:51;6.20;71.20
3690;DHT22;1861;50.240;8.596;2023-04-06T03:36:24;6.20;71.70
3690;DHT22;1861;50.240;8.596;2023-04-06T03:38:55;6.30;71.70
3690;DHT22;1861;50.240;8.596;2023-04-06T03:41:23;6.20;71.40
3690;DHT22;1861;50.240;8.596;2023-04-06T03:44:02;6.10;71.40
3690;DHT22;1861;50.240;8.596;2023-04-06T03:46:30;6.20;71.80
3690;DHT22;1861;50.240;8.596;2023-04-06T03:48:59;6.40;71.10
3690;DHT22;1861;50.240;8.596;2023-04-06T03:51:28;6.30;71.20
3690;DHT22;1861;50.240;8.596;2023-04-06T03:53:56;6.20;71.50
3690;DHT22;1861;50.240;8.596;2023-04-06T03:56:24;6.10;71.50
3690;DHT22;1861;50.240;8.596;2023-04-06T03:58:53;6.00;71.30
3690;DHT22;1861;50.240;8.596;2023-04-06T04:01:23;6.00;71.40
3690;DHT22;1861;50.240;8.596;2023-04-06T04:03:51;5.90;71.70
3690;DHT22;1861;50.240;8.596;2023-04-06T04:06:20;6.10;71.60
3690;DHT22;1861;50.240;8.596;2023-04-06T04:08:48;6.10;71.50
3690;DHT22;1861;50.240;8.596;2023-04-06T04:11:16;6.10;71.10
3690;DHT22;1861;50.240;8.596;2023-04-06T04:13:49;6.30;70.60
3690;DHT22;1861;50.240;8.596;2023-04-06T04:16:17;6.40;70.50
3690;DHT22;1861;50.240;8.596;2023-04-06T04:18:47;6.40;70.10
3690;DHT22;1861;50.240;8.596;2023-04-06T04:21:15;6.20;70.30
3690;DHT22;1861;50.240;8.596;2023-04-06T04:23:44;6.00;71.20
3690;DHT22;1861;50.240;8.596;2023-04-06T04:26:12;5.90;71.60
3690;DHT22;1861;50.240;8.596;2023-04-06T04:28:44;5.90;71.80
3690;DHT22;1861;50.240;8.596;2023-04-06T04:31:14;5.90;71.90
3690;DHT22;1861;50.240;8.596;2023-04-06T04:33:48;5.80;71.90
3690;DHT22;1861;50.240;8.596;2023-04-06T04:36:24;5.80;72.50
3690;DHT22;1861;50.240;8.596;2023-04-06T04:38:55;5.70;72.60
3690;DHT22;1861;50.240;8.596;2023-04-06T04:41:24;5.80;72.70
3690;DHT22;1861;50.240;8.596;2023-04-06T04:43:53;5.80;72.70
3690;DHT22;1861;50.240;8.596;2023-04-06T04:46:24;5.80;72.50
3690;DHT22;1861;50.240;8.596;2023-04-06T04:48:55;5.90;72.70
3690;DHT22;1861;50.240;8.596;2023-04-06T04:51:23;6.10;72.20
3690;DHT22;1861;50.240;8.596;2023-04-06T04:54:06;6.00;71.90
3690;DHT22;1861;50.240;8.596;2023-04-06T04:56:34;6.00;72.20
3690;DHT22;1861;50.240;8.596;2023-04-06T04:59:28;6.10;72.10
3690;DHT22;1861;50.240;8.596;2023-04-06T05:02:06;6.00;72.10
3690;DHT22;1861;50.240;8.596;2023-04-06T05:04:44;6.00;71.80
3690;DHT22;1861;50.240;8.596;2023-04-06T05:07:19;5.90;72.00
3690;DHT22;1861;50.240;8.596;2023-04-06T05:09:48;5.80;72.70
3690;DHT22;1861;50.240;8.596;2023-04-06T05:12:19;6.00;72.30
3690;DHT22;1861;50.240;8.596;2023-04-06T05:14:57;6.10;71.90
3690;DHT22;1861;50.240;8.596;2023-04-06T05:17:26;6.00;72.40
3690;DHT22;1861;50.240;8.596;2023-04-06T05:19:56;5.90;72.20
3690;DHT22;1861;50.240;8.596;2023-04-06T05:22:26;5.90;72.60
3690;DHT22;1861;50.240;8.596;2023-04-06T05:25:01;6.00;72.60
3690;DHT22;1861;50.240;8.596;2023-04-06T05:27:31;6.20;72.50
3690;DHT22;1861;50.240;8.596;2023-04-06T05:30:04;6.00;72.40
3690;DHT22;1861;50.240;8.596;2023-04-06T05:32:38;5.90;72.90
3690;DHT22;1861;50.240;8.596;2023-04-06T05:35:09;5.90;73.00
3690;DHT22;1861;50.240;8.596;2023-04-06T05:37:38;6.00;73.00
3690;DHT22;1861;50.240;8.596;2023-04-06T05:40:08;6.00;73.30
3690;DHT22;1861;50.240;8.596;2023-04-06T05:42:37;5.90;73.30
3690;DHT22;1861;50.240;8.596;2023-04-06T05:45:06;5.90;73.70
3690;DHT22;1861;50.240;8.596;2023-04-06T05:47:35;6.00;72.90
3690;DHT22;1861;50.240;8.596;2023-04-06T05:50:18;6.00;73.10
3690;DHT22;1861;50.240;8.596;2023-04-06T05:52:47;6.10;73.40
3690;DHT22;1861;50.240;8.596;2023-04-06T05:55:18;6.10;73.80
3690;DHT22;1861;50.240;8.596;2023-04-06T05:57:53;6.00;73.30
3690;DHT22;1861;50.240;8.596;2023-04-06T06:00:21;6.10;73.60
3690;DHT22;1861;50.240;8.596;2023-04-06T06:03:00;6.10;73.00
3690;DHT22;1861;50.240;8.596;2023-04-06T06:05:32;6.10;73.30
3690;DHT22;1861;50.240;8.596;2023-04-06T06:08:08;6.10;73.50
3690;DHT22;1861;50.240;8.596;2023-04-06T06:10:38;6.20;73.60
3690;DHT22;1861;50.240;8.596;2023-04-06T06:13:09;6.20;73.50
3690;DHT22;1861;50.240;8.596;2023-04-06T06:15:38;6.30;73.50
3690;DHT22;1861;50.240;8.596;2023-04-06T06:18:06;6.30;74.20
3690;DHT22;1861;50.240;8.596;2023-04-06T06:20:36;6.40;73.80
3690;DHT22;1861;50.240;8.596;2023-04-06T06:23:05;6.40;73.50
3690;DHT22;1861;50.240;8.596;2023-04-06T06:25:35;6.50;73.40
3690;DHT22;1861;50.240;8.596;2023-04-06T06:28:04;6.50;74.40
3690;DHT22;1861;50.240;8.596;2023-04-06T06:30:32;6.70;73.30
3690;DHT22;1861;50.240;8.596;2023-04-06T06:33:01;6.70;73.30
3690;DHT22;1861;50.240;8.596;2023-04-06T06:35:30;6.70;73.10
3690;DHT22;1861;50.240;8.596;2023-04-06T06:38:03;6.80;74.10
3690;DHT22;1861;50.240;8.596;2023-04-06T06:40:33;6.90;73.50
3690;DHT22;1861;50.240;8.596;2023-04-06T06:43:01;6.90;73.10
3690;DHT22;1861;50.240;8.596;2023-04-06T06:45:56;6.90;72.50
3690;DHT22;1861;50.240;8.596;2023-04-06T06:48:25;6.90;73.50
3690;DHT22;1861;50.240;8.596;2023-04-06T06:50:54;7.00;72.90
3690;DHT22;1861;50.240;8.596;2023-04-06T06:53:24;7.00;72.80
3690;DHT22;1861;50.240;8.596;2023-04-06T06:55:52;7.00;73.50
3690;DHT22;1861;50.240;8.596;2023-04-06T06:58:20;7.10;74.00
3690;DHT22;1861;50.240;8.596;2023-04-06T07:00:49;7.20;73.70
3690;DHT22;1861;50.240;8.596;2023-04-06T07:03:17;7.20;74.00
3690;DHT22;1861;50.240;8.596;2023-04-06T07:05:45;7.20;74.00
3690;DHT22;1861;50.240;8.596;2023-04-06T07:08:16;7.20;73.50
3690;DHT22;1861;50.240;8.596;2023-04-06T07:10:46;7.30;73.70
3690;DHT22;1861;50.240;8.596;2023-04-06T07:13:14;7.40;73.90
3690;DHT22;1861;50.240;8.596;2023-04-06T07:15:48;7.50;73.60
3690;DHT22;1861;50.240;8.596;2023-04-06T07:18:17;7.40;73.80
3690;DHT22;1861;50.240;8.596;2023-04-06T07:20:46;7.40;73.20
3690;DHT22;1861;50.240;8.596;2023-04-06T07:23:15;7.50;73.80
3690;DHT22;1861;50.240;8.596;2023-04-06T07:25:45;7.50;73.20
3690;DHT22;1861;50.240;8.596;2023-04-06T07:28:14;7.60;73.60
3690;DHT22;1861;50.240;8.596;2023-04-06T07:30:42;7.70;73.80
3690;DHT22;1861;50.240;8.596;2023-04-06T07:33:11;7.70;73.80
3690;DHT22;1861;50.240;8.596;2023-04-06T07:35:41;7.80;73.80
3690;DHT22;1861;50.240;8.596;2023-04-06T07:38:10;7.80;73.30
3690;DHT22;1861;50.240;8.596;2023-04-06T07:40:39;7.90;74.00
3690;DHT22;1861;50.240;8.596;2023-04-06T07:43:09;7.90;74.20
3690;DHT22;1861;50.240;8.596;2023-04-06T07:45:37;7.90;74.00
3690;DHT22;1861;50.240;8.596;2023-04-06T07:48:06;8.00;74.80
3690;DHT22;1861;50.240;8.596;2023-04-06T07:50:34;8.10;75.20
3690;DHT22;1861;50.240;8.596;2023-04-06T07:53:04;8.20;74.60
3690;DHT22;1861;50.240;8.596;2023-04-06T07:55:33;8.20;74.40
3690;DHT22;1861;50.240;8.596;2023-04-06T07:58:01;8.30;74.30
3690;DHT22;1861;50.240;8.596;2023-04-06T08:00:31;8.50;74.40
3690;DHT22;1861;50.240;8.596;2023-04-06T08:02:59;8.60;73.90
3690;DHT22;1861;50.240;8.596;2023-04-06T08:05:28;8.70;73.70
3690;DHT22;1861;50.240;8.596;2023-04-06T08:07:56;8.80;73.20
3690;DHT22;1861;50.240;8.596;2023-04-06T08:10:24;8.80;73.10
3690;DHT22;1861;50.240;8.596;2023-04-06T08:12:52;8.90;73.30
3690;DHT22;1861;50.240;8.596;2023-04-06T08:15:20;8.90;72.80
3690;DHT22;1861;50.240;8.596;2023-04-06T08:17:50;9.00;72.30
3690;DHT22;1861;50.240;8.596;2023-04-06T08:20:18;9.00;71.50
3690;DHT22;1861;50.240;8.596;2023-04-06T08:22:46;9.10;70.60
3690;DHT22;1861;50.240;8.596;2023-04-06T08:25:18;9.10;71.10
3690;DHT22;1861;50.240;8.596;2023-04-06T08:27:46;9.10;70.60
3690;DHT22;1861;50.240;8.596;2023-04-06T08:30:14;9.10;70.30
3690;DHT22;1861;50.240;8.596;2023-04-06T08:32:43;9.20;70.30
3690;DHT22;1861;50.240;8.596;2023-04-06T08:35:12;9.30;71.00
3690;DHT22;1861;50.240;8.596;2023-04-06T08:37:40;9.40;69.80
3690;DHT22;1861;50.240;8.596;2023-04-06T08:40:09;9.40;69.60
3690;DHT22;1861;50.240;8.596;2023-04-06T08:42:40;9.40;68.90
3690;DHT22;1861;50.240;8.596;2023-04-06T08:45:11;9.50;69.00
3690;DHT22;1861;50.240;8.596;2023-04-06T08:47:40;9.60;68.80
3690;DHT22;1861;50.240;8.596;2023-04-06T08:50:11;9.60;68.70
3690;DHT22;1861;50.240;8.596;2023-04-06T08:52:40;9.70;69.20
3690;DHT22;1861;50.240;8.596;2023-04-06T08:55:10;9.70;68.30
3690;DHT22;1861;50.240;8.596;2023-04-06T08:57:38;9.60;68.80
3690;DHT22;1861;50.240;8.596;2023-04-06T09:00:09;9.60;68.90
3690;DHT22;1861;50.240;8.596;2023-04-06T09:02:39;9.70;69.20
3690;DHT22;1861;50.240;8.596;2023-04-06T09:05:08;9.80;68.10
3690;DHT22;1861;50.240;8.596;2023-04-06T09:07:39;9.80;68.40
3690;DHT22;1861;50.240;8.596;2023-04-06T09:10:08;9.80;68.10
3690;DHT22;1861;50.240;8.596;2023-04-06T09:12:36;9.80;68.30
3690;DHT22;1861;50.240;8.596;2023-04-06T09:15:05;9.90;68.10
3690;DHT22;1861;50.240;8.596;2023-04-06T09:17:33;9.90;67.80
3690;DHT22;1861;50.240;8.596;2023-04-06T09:20:04;9.90;67.80
3690;DHT22;1861;50.240;8.596;2023-04-06T09:22:36;9.90;67.70
3690;DHT22;1861;50.240;8.596;2023-04-06T09:25:07;10.00;66.10
3690;DHT22;1861;50.240;8.596;2023-04-06T09:27:37;10.00;66.80
3690;DHT22;1861;50.240;8.596;2023-04-06T09:30:07;10.00;66.50
3690;DHT22;1861;50.240;8.596;2023-04-06T09:32:47;10.10;66.70
3690;DHT22;1861;50.240;8.596;2023-04-06T09:35:16;10.20;67.10
3690;DHT22;1861;50.240;8.596;2023-04-06T09:37:47;10.20;67.30
3690;DHT22;1861;50.240;8.596;2023-04-06T09:40:17;10.20;68.00
3690;DHT22;1861;50.240;8.596;2023-04-06T09:42:46;10.30;67.40
3690;DHT22;1861;50.240;8.596;2023-04-06T09:45:15;10.30;67.40
3690;DHT22;1861;50.240;8.596;2023-04-06T09:47:45;10.30;67.70
3690;DHT22;1861;50.240;8.596;2023-04-06T09:50:14;10.40;67.80
3690;DHT22;1861;50.240;8.596;2023-04-06T09:52:49;10.40;68.40
3690;DHT22;1861;50.240;8.596;2023-04-06T09:55:23;10.40;68.20
3690;DHT22;1861;50.240;8.596;2023-04-06T09:57:57;10.40;68.80
3690;DHT22;1861;50.240;8.596;2023-04-06T10:00:26;10.40;69.20
3690;DHT22;1861;50.240;8.596;2023-04-06T10:02:58;10.50;69.20
3690;DHT22;1861;50.240;8.596;2023-04-06T10:05:37;10.50;69.40
3690;DHT22;1861;50.240;8.596;2023-04-06T10:08:07;10.50;69.60
3690;DHT22;1861;50.240;8.596;2023-04-06T10:10:38;10.60;69.30
3690;DHT22;1861;50.240;8.596;2023-04-06T10:13:07;10.60;69.20
3690;DHT22;1861;50.240;8.596;2023-04-06T10:15:38;10.70;69.10
3690;DHT22;1861;50.240;8.596;2023-04-06T10:18:06;10.70;69.00
3690;DHT22;1861;50.240;8.596;2023-04-06T10:20:39;10.70;69.00
3690;DHT22;1861;50.240;8.596;2023-04-06T10:23:13;10.70;69.30
3690;DHT22;1861;50.240;8.596;2023-04-06T10:25:53;10.80;69.60
3690;DHT22;1861;50.240;8.596;2023-04-06T10:28:22;10.80;70.30
3690;DHT22;1861;50.240;8.596;2023-04-06T10:30:57;10.80;70.40
3690;DHT22;1861;50.240;8.596;2023-04-06T10:33:26;10.90;70.60
3690;DHT22;1861;50.240;8.596;2023-04-06T10:35:54;11.00;69.60
3690;DHT22;1861;50.240;8.596;2023-04-06T10:38:33;11.00;69.00
3690;DHT22;1861;50.240;8.596;2023-04-06T10:41:09;11.00;69.20
3690;DHT22;1861;50.240;8.596;2023-04-06T10:43:39;11.10;69.20
3690;DHT22;1861;50.240;8.596;2023-04-06T10:46:09;11.10;68.90
3690;DHT22;1861;50.240;8.596;2023-04-06T10:48:39;11.10;69.20
3690;DHT22;1861;50.240;8.596;2023-04-06T10:51:09;11.20;68.60
3690;DHT22;1861;50.240;8.596;2023-04-06T10:53:38;11.20;68.80
3690;DHT22;1861;50.240;8.596;2023-04-06T10:56:11;11.20;68.80
3690;DHT22;1861;50.240;8.596;2023-04-06T10:58:44;11.30;68.60
3690;DHT22;1861;50.240;8.596;2023-04-06T11:01:15;11.30;68.00
3690;DHT22;1861;50.240;8.596;2023-04-06T11:03:44;11.30;68.30
3690;DHT22;1861;50.240;8.596;2023-04-06T11:06:18;11.30;68.20
3690;DHT22;1861;50.240;8.596;2023-04-06T11:08:47;11.40;68.50
3690;DHT22;1861;50.240;8.596;2023-04-06T11:11:18;11.30;68.70
3690;DHT22;1861;50.240;8.596;2023-04-06T11:13:49;11.50;68.80
3690;DHT22;1861;50.240;8.596;2023-04-06T11:16:19;11.50;68.50
3690;DHT22;1861;50.240;8.596;2023-04-06T11:18:49;11.60;68.80
3690;DHT22;1861;50.240;8.596;2023-04-06T11:21:18;11.60;69.20
3690;DHT22;1861;50.240;8.596;2023-04-06T11:23:46;11.70;69.10
3690;DHT22;1861;50.240;8.596;2023-04-06T11:26:14;11.80;69.40
3690;DHT22;1861;50.240;8.596;2023-04-06T11:28:44;11.70;69.30
3690;DHT22;1861;50.240;8.596;2023-04-06T11:31:13;11.60;68.90
3690;DHT22;1861;50.240;8.596;2023-04-06T11:33:41;11.60;69.30
3690;DHT22;1861;50.240;8.596;2023-04-06T11:36:09;11.50;69.00
3690;DHT22;1861;50.240;8.596;2023-04-06T11:38:39;11.50;68.90
3690;DHT22;1861;50.240;8.596;2023-04-06T11:41:08;11.60;68.40
3690;DHT22;1861;50.240;8.596;2023-04-06T11:43:36;11.60;68.50
3690;DHT22;1861;50.240;8.596;2023-04-06T11:46:05;11.60;68.60
3690;DHT22;1861;50.240;8.596;2023-04-06T11:48:43;11.60;68.80
3690;DHT22;1861;50.240;8.596;2023-04-06T11:51:12;11.60;69.70
3690;DHT22;1861;50.240;8.596;2023-04-06T11:53:44;11.70;69.40
3690;DHT22;1861;50.240;8.596;2023-04-06T11:56:26;11.60;69.10
3690;DHT22;1861;50.240;8.596;2023-04-06T11:58:55;11.70;69.50
3690;DHT22;1861;50.240;8.596;2023-04-06T12:01:26;11.70;69.60
3690;DHT22;1861;50.240;8.596;2023-04-06T12:03:54;11.80;69.30
3690;DHT22;1861;50.240;8.596;2023-04-06T12:06:23;11.70;69.10
3690;DHT22;1861;50.240;8.596;2023-04-06T12:08:52;11.60;68.40
3690;DHT22;1861;50.240;8.596;2023-04-06T12:11:20;11.60;68.50
3690;DHT22;1861;50.240;8.596;2023-04-06T12:13:48;11.60;68.00
3690;DHT22;1861;50.240;8.596;2023-04-06T12:16:17;11.60;68.50
3690;DHT22;1861;50.240;8.596;2023-04-06T12:18:47;11.70;68.80
3690;DHT22;1861;50.240;8.596;2023-04-06T12:21:16;11.70;68.70
3690;DHT22;1861;50.240;8.596;2023-04-06T12:23:44;11.70;69.70
3690;DHT22;1861;50.240;8.596;2023-04-06T12:26:12;11.70;69.20
3690;DHT22;1861;50.240;8.596;2023-04-06T12:28:40;11.80;70.10
3690;DHT22;1861;50.240;8.596;2023-04-06T12:31:14;11.80;69.50
3690;DHT22;1861;50.240;8.596;2023-04-06T12:33:43;11.80;69.60
3690;DHT22;1861;50.240;8.596;2023-04-06T12:36:16;11.80;70.00
3690;DHT22;1861;50.240;8.596;2023-04-06T12:38:47;11.80;69.90
3690;DHT22;1861;50.240;8.596;2023-04-06T12:41:15;11.90;69.50
3690;DHT22;1861;50.240;8.596;2023-04-06T12:43:44;11.90;69.90
3690;DHT22;1861;50.240;8.596;2023-04-06T12:46:12;11.90;69.70
3690;DHT22;1861;50.240;8.596;2023-04-06T12:48:40;11.90;70.00
3690;DHT22;1861;50.240;8.596;2023-04-06T12:51:09;11.90;70.40
3690;DHT22;1861;50.240;8.596;2023-04-06T12:53:39;11.90;70.10
3690;DHT22;1861;50.240;8.596;2023-04-06T12:56:12;11.80;69.30
3690;DHT22;1861;50.240;8.596;2023-04-06T12:58:40;11.80;69.10
3690;DHT22;1861;50.240;8.596;2023-04-06T13:01:09;11.90;69.50
3690;DHT22;1861;50.240;8.596;2023-04-06T13:03:40;11.90;68.90
3690;DHT22;1861;50.240;8.596;2023-04-06T13:06:09;11.80;68.90
3690;DHT22;1861;50.240;8.596;2023-04-06T13:08:39;11.80;68.60
3690;DHT22;1861;50.240;8.596;2023-04-06T13:11:07;11.80;68.10
3690;DHT22;1861;50.240;8.596;2023-04-06T13:13:36;11.70;68.50
3690;DHT22;1861;50.240;8.596;2023-04-06T13:16:07;11.70;68.40
3690;DHT22;1861;50.240;8.596;2023-04-06T13:18:36;11.80;68.40
3690;DHT22;1861;50.240;8.596;2023-04-06T13:21:06;11.70;68.40
3690;DHT22;1861;50.240;8.596;2023-04-06T13:23:34;11.70;68.70
3690;DHT22;1861;50.240;8.596;2023-04-06T13:26:05;11.70;68.70
3690;DHT22;1861;50.240;8.596;2023-04-06T13:28:35;11.80;68.00
3690;DHT22;1861;50.240;8.596;2023-04-06T13:31:05;11.70;68.10
3690;DHT22;1861;50.240;8.596;2023-04-06T13:33:33;11.80;68.10
3690;DHT22;1861;50.240;8.596;2023-04-06T13:36:02;11.70;68.40
3690;DHT22;1861;50.240;8.596;2023-04-06T13:38:31;11.70;68.20
3690;DHT22;1861;50.240;8.596;2023-04-06T13:41:00;11.70;68.00
3690;DHT22;1861;50.240;8.596;2023-04-06T13:43:30;11.80;68.10
3690;DHT22;1861;50.240;8.596;2023-04-06T13:45:58;11.80;68.10
3690;DHT22;1861;50.240;8.596;2023-04-06T13:48:27;11.80;68.20
3690;DHT22;1861;50.240;8.596;2023-04-06T13:50:57;11.90;67.80
3690;DHT22;1861;50.240;8.596;2023-04-06T13:53:25;11.90;67.50
3690;DHT22;1861;50.240;8.596;2023-04-06T13:55:53;11.90;67.70
3690;DHT22;1861;50.240;8.596;2023-04-06T13:58:22;12.00;68.30
3690;DHT22;1861;50.240;8.596;2023-04-06T14:00:51;12.00;68.20
3690;DHT22;1861;50.240;8.596;2023-04-06T14:03:21;12.00;68.10
3690;DHT22;1861;50.240;8.596;2023-04-06T14:05:50;12.00;68.40
3690;DHT22;1861;50.240;8.596;2023-04-06T14:08:18;12.00;67.90
3690;DHT22;1861;50.240;8.596;2023-04-06T14:10:46;12.00;68.30
3690;DHT22;1861;50.240;8.596;2023-04-06T14:13:14;12.00;68.50
3690;DHT22;1861;50.240;8.596;2023-04-06T14:15:43;12.00;68.00
3690;DHT22;1861;50.240;8.596;2023-04-06T14:18:13;12.00;68.70
3690;DHT22;1861;50.240;8.596;2023-04-06T14:20:41;12.00;68.30
3690;DHT22;1861;50.240;8.596;2023-04-06T14:23:10;12.00;68.10
3690;DHT22;1861;50.240;8.596;2023-04-06T14:25:38;11.90;68.00
3690;DHT22;1861;50.240;8.596;2023-04-06T14:28:07;11.90;67.10
3690;DHT22;1861;50.240;8.596;2023-04-06T14:30:35;11.90;67.10
3690;DHT22;1861;50.240;8.596;2023-04-06T14:33:03;11.90;67.30
3690;DHT22;1861;50.240;8.596;2023-04-06T14:35:33;11.90;67.20
3690;DHT22;1861;50.240;8.596;2023-04-06T14:38:01;11.90;67.00
3690;DHT22;1861;50.240;8.596;2023-04-06T14:40:29;11.90;67.40
3690;DHT22;1861;50.240;8.596;2023-04-06T14:42:57;11.90;67.40
3690;DHT22;1861;50.240;8.596;2023-04-06T14:45:25;11.90;67.40
3690;DHT22;1861;50.240;8.596;2023-04-06T14:47:53;11.90;67.10
3690;DHT22;1861;50.240;8.596;2023-04-06T14:50:21;11.90;67.20
3690;DHT22;1861;50.240;8.596;2023-04-06T14:52:51;11.90;67.30
3690;DHT22;1861;50.240;8.596;2023-04-06T14:55:19;11.90;67.10
3690;DHT22;1861;50.240;8.596;2023-04-06T14:57:47;11.90;67.10
3690;DHT22;1861;50.240;8.596;2023-04-06T15:00:16;11.90;66.90
3690;DHT22;1861;50.240;8.596;2023-04-06T15:02:44;11.90;66.80
3690;DHT22;1861;50.240;8.596;2023-04-06T15:05:13;11.90;66.60
3690;DHT22;1861;50.240;8.596;2023-04-06T15:07:41;11.90;66.40
3690;DHT22;1861;50.240;8.596;2023-04-06T15:10:11;11.90;66.30
3690;DHT22;1861;50.240;8.596;2023-04-06T15:12:39;11.90;66.00
3690;DHT22;1861;50.240;8.596;2023-04-06T15:15:07;11.90;65.70
3690;DHT22;1861;50.240;8.596;2023-04-06T15:17:36;11.90;66.30
3690;DHT22;1861;50.240;8.596;2023-04-06T15:20:05;11.80;65.80
3690;DHT22;1861;50.240;8.596;2023-04-06T15:22:35;11.80;65.60
3690;DHT22;1861;50.240;8.596;2023-04-06T15:25:04;11.80;65.80
3690;DHT22;1861;50.240;8.596;2023-04-06T15:27:33;11.80;65.60
3690;DHT22;1861;50.240;8.596;2023-04-06T15:30:02;11.80;65.40
3690;DHT22;1861;50.240;8.596;2023-04-06T15:32:30;11.80;65.40
3690;DHT22;1861;50.240;8.596;2023-04-06T15:34:59;11.80;65.40
3690;DHT22;1861;50.240;8.596;2023-04-06T15:37:27;11.80;65.20
3690;DHT22;1861;50.240;8.596;2023-04-06T15:39:55;11.80;65.40
3690;DHT22;1861;50.240;8.596;2023-04-06T15:42:26;11.80;65.30
3690;DHT22;1861;50.240;8.596;2023-04-06T15:44:56;11.80;65.50
3690;DHT22;1861;50.240;8.596;2023-04-06T15:47:24;11.80;65.20
3690;DHT22;1861;50.240;8.596;2023-04-06T15:49:52;11.80;64.80
3690;DHT22;1861;50.240;8.596;2023-04-06T15:52:20;11.80;64.40
3690;DHT22;1861;50.240;8.596;2023-04-06T15:54:48;11.80;64.70
3690;DHT22;1861;50.240;8.596;2023-04-06T15:57:17;11.80;64.80
3690;DHT22;1861;50.240;8.596;2023-04-06T15:59:45;11.80;64.80
3690;DHT22;1861;50.240;8.596;2023-04-06T16:02:15;11.80;64.70
3690;DHT22;1861;50.240;8.596;2023-04-06T16:04:43;11.70;64.80
3690;DHT22;1861;50.240;8.596;2023-04-06T16:07:11;11.80;64.70
3690;DHT22;1861;50.240;8.596;2023-04-06T16:09:39;11.80;64.50
3690;DHT22;1861;50.240;8.596;2023-04-06T16:12:09;11.80;64.20
3690;DHT22;1861;50.240;8.596;2023-04-06T16:14:37;11.80;64.90
3690;DHT22;1861;50.240;8.596;2023-04-06T16:17:05;11.80;64.80
3690;DHT22;1861;50.240;8.596;2023-04-06T16:19:34;11.80;64.60
3690;DHT22;1861;50.240;8.596;2023-04-06T16:22:03;11.80;64.70
3690;DHT22;1861;50.240;8.596;2023-04-06T16:24:31;11.80;63.90
3690;DHT22;1861;50.240;8.596;2023-04-06T16:26:59;11.80;63.70